Time;durP1;ratioP1;P1;durP2;ratioP2;P2;SDS_P1;SDS_P2;PMS_P1;PMS_P2;Temp;Humidity;BMP_temperature;BMP_pressure;BME280_temperature;BME280_humidity;BME280_pressure;Samples;Min_cycle;Max_cycle;Signal;HPM_P1;HPM_P2
2024/01/24 00:00:38;;;;;;;31.60;29.60;;;;;;;;;;5011531;28;20737;-44
2024/01/24 00:03:04;;;;;;;30.67;28.67;;;;;;;;;;4995751;28;20431;-44
2024/01/24 00:05:30;;;;;;;32.73;30.30;;;;;;;;;;5014499;28;20408;-44
2024/01/24 00:07:56;;;;;;;45.67;40.90;;;;;;;;;;4999992;28;20412;-44
2024/01/24 00:10:23;;;;;;;31.13;29.00;;;;;;;;;;5006288;28;20428;-44
2024/01/24 00:12:49;;;;;;;34.17;31.73;;;;;;;;;;5008001;28;20467;-44
2024/01/24 00:15:15;;;;;;;32.92;30.63;;;;;;;;;;4998106;28;20204;-44
2024/01/24 00:17:41;;;;;;;30.23;28.13;;;;;;;;;;5015154;28;20192;-44
2024/01/24 00:20:07;;;;;;;27.97;26.30;;;;;;;;;;4996057;28;20439;-44
2024/01/24 00:22:33;;;;;;;28.98;27.13;;;;;;;;;;5009508;28;20408;-44
2024/01/24 00:24:59;;;;;;;29.77;27.70;;;;;;;;;;5004337;28;20264;-44
2024/01/24 00:27:25;;;;;;;29.50;27.70;;;;;;;;;;5001538;28;20418;-44
2024/01/24 00:29:51;;;;;;;35.67;32.70;;;;;;;;;;5012083;28;21125;-44
2024/01/24 00:32:17;;;;;;;35.40;32.27;;;;;;;;;;4995100;28;20960;-44
2024/01/24 00:34:43;;;;;;;38.13;34.40;;;;;;;;;;5013007;28;20754;-44
2024/01/24 00:37:09;;;;;;;38.60;34.63;;;;;;;;;;5000475;28;20441;-44
2024/01/24 00:39:35;;;;;;;37.30;33.47;;;;;;;;;;5004529;28;20228;-44
2024/01/24 00:42:01;;;;;;;19.73;18.42;;;;;;;;;;5008473;28;20890;-44
2024/01/24 00:44:27;;;;;;;37.23;33.00;;;;;;;;;;4996537;28;20169;-44
2024/01/24 00:46:53;;;;;;;34.27;28.90;;;;;;;;;;5014556;28;20479;-44
2024/01/24 00:49:19;;;;;;;31.37;27.97;;;;;;;;;;4996633;28;20430;-44
2024/01/24 00:51:45;;;;;;;30.60;27.30;;;;;;;;;;5007854;28;20456;-44
2024/01/24 00:54:11;;;;;;;25.53;23.03;;;;;;;;;;5004614;28;20234;-44
2024/01/24 00:56:37;;;;;;;25.67;23.73;;;;;;;;;;4999548;28;20412;-44
2024/01/24 00:59:03;;;;;;;39.20;35.07;;;;;;;;;;5012583;28;20414;-44
2024/01/24 01:01:29;;;;;;;34.63;30.92;;;;;;;;;;4994595;28;20443;-44
2024/01/24 01:03:55;;;;;;;38.83;34.73;;;;;;;;;;5011410;28;20213;-44
2024/01/24 01:06:22;;;;;;;35.13;31.07;;;;;;;;;;5001089;28;20421;-44
2024/01/24 01:08:48;;;;;;;36.78;32.90;;;;;;;;;;5003066;28;20919;-44
2024/01/24 01:11:14;;;;;;;36.50;33.38;;;;;;;;;;5008809;28;20206;-44
2024/01/24 01:13:40;;;;;;;33.95;30.35;;;;;;;;;;4995103;28;20195;-44
2024/01/24 01:16:06;;;;;;;37.37;33.40;;;;;;;;;;4999056;28;20620;-44
2024/01/24 01:18:32;;;;;;;37.77;33.73;;;;;;;;;;5010622;28;20848;-44
2024/01/24 01:20:58;;;;;;;34.00;30.50;;;;;;;;;;5000884;28;20436;-44
2024/01/24 01:23:24;;;;;;;33.87;30.30;;;;;;;;;;5002434;28;20455;-44
2024/01/24 01:25:50;;;;;;;37.73;33.87;;;;;;;;;;5013123;28;20463;-44
2024/01/24 01:28:16;;;;;;;29.67;26.53;;;;;;;;;;5013304;28;20415;-44
2024/01/24 01:30:42;;;;;;;41.90;36.93;;;;;;;;;;4993724;28;20572;-44
2024/01/24 01:33:07;;;;;;;21.37;19.80;;;;;;;;;;5009802;28;20409;-44
2024/01/24 01:35:35;;;;;;;48.17;38.83;;;;;;;;;;5001498;28;20457;-44
2024/01/24 01:38:01;;;;;;;29.50;27.20;;;;;;;;;;5001856;28;20420;-44
2024/01/24 01:40:27;;;;;;;34.37;30.80;;;;;;;;;;5009128;28;20195;-44
2024/01/24 01:42:53;;;;;;;95.43;48.35;;;;;;;;;;4993662;28;20422;-44
2024/01/24 01:45:19;;;;;;;82.78;46.50;;;;;;;;;;5013221;28;20187;-44
2024/01/24 01:47:46;;;;;;;57.03;45.13;;;;;;;;;;4997572;28;20195;-44
2024/01/24 01:50:14;;;;;;;59.90;45.50;;;;;;;;;;5004930;28;20201;-44
2024/01/24 01:52:40;;;;;;;130.65;52.00;;;;;;;;;;5005188;28;20246;-44
2024/01/24 01:55:08;;;;;;;36.73;33.40;;;;;;;;;;4997306;28;20201;-44
2024/01/24 01:57:34;;;;;;;38.00;34.77;;;;;;;;;;5012909;28;20768;-44
2024/01/24 02:00:00;;;;;;;38.80;35.43;;;;;;;;;;4993222;28;21028;-44
2024/01/24 02:02:26;;;;;;;39.93;36.50;;;;;;;;;;5008923;28;20414;-44
2024/01/24 02:04:52;;;;;;;19.57;18.27;;;;;;;;;;5001784;28;20571;-44
2024/01/24 02:07:18;;;;;;;37.25;33.58;;;;;;;;;;5000153;28;20418;-44
2024/01/24 02:09:44;;;;;;;34.87;32.53;;;;;;;;;;5008955;28;20302;-44
2024/01/24 02:12:10;;;;;;;36.03;33.70;;;;;;;;;;4993156;28;20464;-44
2024/01/24 02:14:36;;;;;;;29.27;27.60;;;;;;;;;;5009582;28;20435;-44
2024/01/24 02:17:02;;;;;;;32.43;30.53;;;;;;;;;;5008148;28;20409;-44
2024/01/24 02:19:28;;;;;;;36.00;33.33;;;;;;;;;;5001217;28;20931;-44
2024/01/24 02:21:54;;;;;;;32.57;30.33;;;;;;;;;;4993403;28;20421;-44
2024/01/24 02:24:20;;;;;;;31.50;29.27;;;;;;;;;;4996013;28;20420;-44
2024/01/24 02:26:46;;;;;;;35.97;33.30;;;;;;;;;;5012679;28;20404;-44
2024/01/24 02:29:12;;;;;;;33.37;30.93;;;;;;;;;;4993505;28;20780;-45
2024/01/24 02:31:38;;;;;;;34.80;32.30;;;;;;;;;;5007250;28;20841;-45
2024/01/24 02:34:04;;;;;;;33.07;30.57;;;;;;;;;;5001830;28;20411;-44
2024/01/24 02:36:30;;;;;;;34.47;32.13;;;;;;;;;;4999312;28;20497;-45
2024/01/24 02:38:56;;;;;;;36.30;33.70;;;;;;;;;;5009624;28;20455;-44
2024/01/24 02:41:23;;;;;;;34.47;31.80;;;;;;;;;;4992752;28;20420;-45
2024/01/24 02:43:49;;;;;;;36.33;33.50;;;;;;;;;;5010790;28;20429;-44
2024/01/24 02:46:15;;;;;;;36.83;33.73;;;;;;;;;;4997975;28;20488;-44
2024/01/24 02:48:41;;;;;;;39.77;36.57;;;;;;;;;;5002646;28;20439;-44
2024/01/24 02:51:07;;;;;;;39.00;35.47;;;;;;;;;;5006058;28;20498;-44
2024/01/24 02:53:33;;;;;;;39.23;35.47;;;;;;;;;;4994626;28;20920;-44
2024/01/24 02:55:59;;;;;;;42.03;38.03;;;;;;;;;;4991430;28;20442;-45
2024/01/24 02:58:25;;;;;;;37.33;33.80;;;;;;;;;;4992285;28;20444;-44
2024/01/24 03:00:50;;;;;;;40.30;36.73;;;;;;;;;;4991965;28;20439;-44
2024/01/24 03:03:16;;;;;;;39.83;36.30;;;;;;;;;;4992312;28;20414;-45
2024/01/24 03:05:43;;;;;;;42.20;38.50;;;;;;;;;;4992446;28;20458;-45
2024/01/24 03:08:08;;;;;;;44.83;41.03;;;;;;;;;;4992270;28;20427;-44
2024/01/24 03:10:34;;;;;;;42.20;38.57;;;;;;;;;;4991864;28;20440;-45
2024/01/24 03:13:00;;;;;;;41.47;37.73;;;;;;;;;;4992092;28;20459;-44
2024/01/24 03:15:26;;;;;;;41.73;37.97;;;;;;;;;;4992168;28;20489;-44
2024/01/24 03:17:52;;;;;;;37.67;34.27;;;;;;;;;;5009493;28;20773;-44
2024/01/24 03:20:19;;;;;;;42.20;38.30;;;;;;;;;;5002977;28;20946;-44
2024/01/24 03:22:45;;;;;;;40.40;36.60;;;;;;;;;;5004651;28;21022;-44
2024/01/24 03:25:12;;;;;;;34.30;31.13;;;;;;;;;;5011531;28;20825;-44
2024/01/24 03:27:38;;;;;;;39.25;35.55;;;;;;;;;;4996690;28;20411;-44
2024/01/24 03:30:05;;;;;;;40.90;37.20;;;;;;;;;;5015569;28;20226;-44
2024/01/24 03:32:31;;;;;;;38.77;35.10;;;;;;;;;;4999505;28;20471;-45
2024/01/24 03:34:58;;;;;;;41.17;37.30;;;;;;;;;;5008290;28;20500;-44
2024/01/24 03:37:24;;;;;;;38.63;35.07;;;;;;;;;;5007294;28;20438;-44
2024/01/24 03:39:50;;;;;;;37.88;34.38;;;;;;;;;;4999966;28;20807;-44
2024/01/24 03:42:16;;;;;;;38.53;35.00;;;;;;;;;;5015135;28;20209;-44
2024/01/24 03:44:42;;;;;;;39.33;35.67;;;;;;;;;;4995974;28;20408;-44
2024/01/24 03:47:08;;;;;;;38.60;34.90;;;;;;;;;;5011772;28;20830;-45
2024/01/24 03:49:34;;;;;;;36.23;32.67;;;;;;;;;;5003334;28;20443;-44
2024/01/24 03:52:00;;;;;;;36.33;32.70;;;;;;;;;;5003488;28;20453;-45
2024/01/24 03:54:26;;;;;;;34.07;30.63;;;;;;;;;;5011752;28;20790;-44
2024/01/24 03:56:52;;;;;;;37.33;33.67;;;;;;;;;;4995825;28;20444;-44
2024/01/24 03:59:18;;;;;;;34.97;31.40;;;;;;;;;;5014591;28;20429;-44
2024/01/24 04:01:44;;;;;;;29.90;26.90;;;;;;;;;;4999906;28;20413;-45
2024/01/24 04:04:10;;;;;;;24.43;22.10;;;;;;;;;;5007119;28;20417;-45
2024/01/24 04:06:36;;;;;;;14.73;13.70;;;;;;;;;;5008093;28;20450;-44
2024/01/24 04:09:06;;;;;;;18.50;17.20;;;;;;;;;;4995623;28;20450;-44
2024/01/24 04:11:32;;;;;;;20.27;18.80;;;;;;;;;;4995827;28;20690;-45
2024/01/24 04:13:58;;;;;;;26.87;24.83;;;;;;;;;;4996273;28;20177;-45
2024/01/24 04:16:23;;;;;;;34.43;31.73;;;;;;;;;;5010565;28;20900;-45
2024/01/24 04:18:53;;;;;;;40.47;36.63;;;;;;;;;;5003704;28;20457;-45
2024/01/24 04:21:19;;;;;;;49.67;40.00;;;;;;;;;;5002730;28;20803;-45
2024/01/24 04:23:45;;;;;;;57.42;43.00;;;;;;;;;;5011445;28;20637;-44
2024/01/24 04:26:12;;;;;;;73.53;42.60;;;;;;;;;;4995146;28;20173;-44
2024/01/24 04:28:38;;;;;;;85.32;45.20;;;;;;;;;;5014421;28;20168;-44
2024/01/24 04:31:04;;;;;;;91.78;44.63;;;;;;;;;;4998125;28;20224;-44
2024/01/24 04:33:30;;;;;;;95.53;44.80;;;;;;;;;;5006345;28;20643;-44
2024/01/24 04:35:56;;;;;;;104.07;45.50;;;;;;;;;;5007375;28;20420;-44
2024/01/24 04:38:22;;;;;;;111.43;46.63;;;;;;;;;;4998123;28;20458;-44
2024/01/24 04:40:48;;;;;;;115.68;46.70;;;;;;;;;;5014155;28;20955;-44
2024/01/24 04:43:14;;;;;;;126.30;47.60;;;;;;;;;;4995582;28;20192;-44
2024/01/24 04:45:40;;;;;;;123.77;46.70;;;;;;;;;;5009602;28;20415;-45
2024/01/24 04:48:07;;;;;;;131.25;47.78;;;;;;;;;;5003566;28;20416;-45
2024/01/24 04:50:33;;;;;;;132.13;49.45;;;;;;;;;;5001152;28;20454;-44
2024/01/24 04:52:59;;;;;;;127.88;47.08;;;;;;;;;;5011418;28;20697;-44
2024/01/24 04:55:25;;;;;;;122.37;46.47;;;;;;;;;;4994701;28;20173;-44
2024/01/24 04:57:51;;;;;;;118.32;46.60;;;;;;;;;;5013014;28;20977;-45
2024/01/24 05:00:17;;;;;;;114.80;45.72;;;;;;;;;;4999457;28;20192;-44
2024/01/24 05:02:43;;;;;;;111.00;45.58;;;;;;;;;;5004831;28;20180;-44
2024/01/24 05:05:10;;;;;;;111.50;46.93;;;;;;;;;;5007797;28;20543;-44
2024/01/24 05:07:36;;;;;;;104.47;46.63;;;;;;;;;;4996716;28;20533;-44
2024/01/24 05:10:03;;;;;;;101.57;45.95;;;;;;;;;;5013779;28;20191;-45
2024/01/24 05:12:29;;;;;;;94.78;45.83;;;;;;;;;;4995606;28;20562;-45
2024/01/24 05:14:56;;;;;;;87.43;44.97;;;;;;;;;;5003076;28;20173;-44
2024/01/24 05:17:21;;;;;;;79.63;44.75;;;;;;;;;;5004335;28;20173;-45
2024/01/24 05:19:48;;;;;;;71.07;44.03;;;;;;;;;;5007422;28;20250;-44
2024/01/24 05:22:14;;;;;;;71.40;43.95;;;;;;;;;;4996062;28;20400;-44
2024/01/24 05:24:43;;;;;;;70.10;43.53;;;;;;;;;;5013706;28;20170;-44
2024/01/24 05:27:09;;;;;;;65.05;42.70;;;;;;;;;;4995494;28;20185;-45
2024/01/24 05:29:35;;;;;;;66.50;44.70;;;;;;;;;;5007835;28;20208;-44
2024/01/24 05:32:01;;;;;;;69.57;44.53;;;;;;;;;;5003380;28;20503;-45
2024/01/24 05:34:27;;;;;;;50.77;41.60;;;;;;;;;;4999857;28;20419;-45
2024/01/24 05:36:53;;;;;;;41.10;37.27;;;;;;;;;;5011559;28;20407;-45
2024/01/24 05:39:19;;;;;;;41.67;37.53;;;;;;;;;;4993534;28;20428;-45
2024/01/24 05:41:45;;;;;;;43.08;39.08;;;;;;;;;;5011000;28;20199;-44
2024/01/24 05:44:11;;;;;;;41.40;37.60;;;;;;;;;;4999792;28;20184;-44
2024/01/24 05:46:37;;;;;;;44.43;40.47;;;;;;;;;;5003147;28;20181;-44
2024/01/24 05:49:03;;;;;;;44.60;40.30;;;;;;;;;;5008111;28;20483;-43
2024/01/24 05:51:29;;;;;;;40.50;37.20;;;;;;;;;;4994835;28;20343;-43
2024/01/24 05:53:55;;;;;;;38.72;35.65;;;;;;;;;;5013264;28;20422;-43
2024/01/24 05:56:21;;;;;;;39.53;36.33;;;;;;;;;;4996101;28;20179;-43
2024/01/24 05:58:47;;;;;;;42.07;38.50;;;;;;;;;;5006413;28;20448;-46
2024/01/24 06:01:13;;;;;;;41.67;38.03;;;;;;;;;;5004423;28;20451;-43
2024/01/24 06:03:40;;;;;;;40.97;37.40;;;;;;;;;;4998277;28;20437;-44
2024/01/24 06:06:06;;;;;;;46.05;41.97;;;;;;;;;;5011877;28;20209;-43
2024/01/24 06:08:32;;;;;;;45.15;41.20;;;;;;;;;;4993568;28;20178;-43
2024/01/24 06:10:58;;;;;;;44.07;40.20;;;;;;;;;;5009361;28;20613;-43
2024/01/24 06:13:24;;;;;;;43.90;40.00;;;;;;;;;;4996019;28;20435;-43
2024/01/24 06:15:54;;;;;;;45.70;41.50;;;;;;;;;;4999188;28;20214;-43
2024/01/24 06:18:20;;;;;;;47.92;43.70;;;;;;;;;;4996020;28;20659;-44
2024/01/24 06:20:47;;;;;;;47.87;43.40;;;;;;;;;;4992476;28;20190;-43
2024/01/24 06:23:13;;;;;;;51.13;46.28;;;;;;;;;;4994562;28;20416;-43
2024/01/24 06:25:39;;;;;;;49.10;44.38;;;;;;;;;;4994146;28;20174;-42
2024/01/24 06:28:05;;;;;;;48.10;43.53;;;;;;;;;;4997344;28;20679;-44
2024/01/24 06:30:31;;;;;;;48.45;43.55;;;;;;;;;;4998399;28;20420;-44
2024/01/24 06:32:57;;;;;;;49.60;44.77;;;;;;;;;;4992702;28;20287;-43
2024/01/24 06:35:24;;;;;;;54.13;48.80;;;;;;;;;;4992498;28;20421;-43
2024/01/24 06:37:51;;;;;;;53.20;47.90;;;;;;;;;;4995679;28;20530;-42
2024/01/24 06:40:19;;;;;;;52.83;47.25;;;;;;;;;;4996062;28;20756;-42
2024/01/24 06:42:45;;;;;;;54.75;49.10;;;;;;;;;;4993640;28;20266;-43
2024/01/24 06:45:11;;;;;;;55.53;49.70;;;;;;;;;;4997649;28;20196;-43
2024/01/24 06:47:37;;;;;;;53.78;47.72;;;;;;;;;;5000133;28;20418;-42
2024/01/24 06:50:05;;;;;;;51.87;46.83;;;;;;;;;;4992273;28;20200;-43
2024/01/24 06:52:31;;;;;;;51.22;46.42;;;;;;;;;;4994414;28;20449;-43
2024/01/24 06:54:57;;;;;;;52.10;47.07;;;;;;;;;;4996877;28;20188;-43
2024/01/24 06:57:23;;;;;;;51.15;46.03;;;;;;;;;;4992494;28;20775;-43
2024/01/24 06:59:49;;;;;;;54.03;48.33;;;;;;;;;;4992190;28;20194;-43
2024/01/24 07:02:15;;;;;;;60.60;50.83;;;;;;;;;;4992380;28;20484;-44
2024/01/24 07:04:41;;;;;;;72.17;53.67;;;;;;;;;;4992352;28;20422;-44
2024/01/24 07:07:07;;;;;;;68.70;50.70;;;;;;;;;;4992206;28;20413;-42
2024/01/24 07:09:35;;;;;;;70.30;52.97;;;;;;;;;;4992079;28;20571;-42
2024/01/24 07:12:02;;;;;;;67.72;53.13;;;;;;;;;;4997538;28;20467;-42
2024/01/24 07:14:28;;;;;;;72.72;55.00;;;;;;;;;;4999126;28;20212;-45
2024/01/24 07:16:54;;;;;;;69.47;46.23;;;;;;;;;;4992813;28;20635;-43
2024/01/24 07:19:20;;;;;;;44.73;41.33;;;;;;;;;;4989876;28;20953;-43
2024/01/24 07:21:46;;;;;;;43.57;40.33;;;;;;;;;;4991828;28;20504;-43
2024/01/24 07:24:12;;;;;;;48.40;44.55;;;;;;;;;;4995795;28;20785;-42
2024/01/24 07:26:38;;;;;;;46.90;43.35;;;;;;;;;;4997560;28;20668;-43
2024/01/24 07:29:04;;;;;;;46.83;43.20;;;;;;;;;;4998694;28;20181;-43
2024/01/24 07:31:30;;;;;;;48.20;44.50;;;;;;;;;;4991479;28;20455;-43
2024/01/24 07:33:56;;;;;;;67.83;50.77;;;;;;;;;;4990452;28;20408;-42
2024/01/24 07:36:22;;;;;;;74.72;50.55;;;;;;;;;;4995511;28;21006;-43
2024/01/24 07:38:48;;;;;;;83.03;53.63;;;;;;;;;;4984811;28;20186;-44
2024/01/24 07:41:15;;;;;;;74.53;54.23;;;;;;;;;;4994677;28;20439;-43
2024/01/24 07:43:41;;;;;;;62.95;52.47;;;;;;;;;;4991506;28;20436;-43
2024/01/24 07:46:08;;;;;;;53.88;48.58;;;;;;;;;;4991355;28;20543;-43
2024/01/24 07:48:35;;;;;;;52.17;45.90;;;;;;;;;;4991962;28;20176;-43
2024/01/24 07:51:01;;;;;;;76.82;49.90;;;;;;;;;;4994584;28;20210;-43
2024/01/24 07:53:27;;;;;;;92.47;50.10;;;;;;;;;;4997668;28;20184;-43
2024/01/24 07:55:53;;;;;;;101.43;51.65;;;;;;;;;;4995377;28;20419;-43
2024/01/24 07:58:19;;;;;;;115.07;55.63;;;;;;;;;;4994517;28;20723;-44
2024/01/24 08:00:45;;;;;;;155.93;64.15;;;;;;;;;;4991533;28;20456;-43
2024/01/24 08:03:11;;;;;;;135.50;60.87;;;;;;;;;;4991318;28;20276;-43
2024/01/24 08:05:37;;;;;;;121.07;58.50;;;;;;;;;;4998731;28;20479;-42
2024/01/24 08:08:03;;;;;;;114.33;56.47;;;;;;;;;;5001292;28;20418;-43
2024/01/24 08:10:29;;;;;;;137.52;59.28;;;;;;;;;;5001427;28;20493;-43
2024/01/24 08:12:56;;;;;;;128.13;61.30;;;;;;;;;;5011605;28;20197;-43
2024/01/24 08:15:22;;;;;;;151.00;60.85;;;;;;;;;;4995719;28;20428;-44
2024/01/24 08:17:48;;;;;;;155.60;62.23;;;;;;;;;;5014808;28;20211;-43
2024/01/24 08:20:14;;;;;;;159.23;63.57;;;;;;;;;;4999160;28;20427;-43
2024/01/24 08:22:40;;;;;;;158.52;64.70;;;;;;;;;;5006565;28;20999;-43
2024/01/24 08:25:06;;;;;;;143.93;61.07;;;;;;;;;;5007644;28;20275;-43
2024/01/24 08:27:32;;;;;;;146.75;62.42;;;;;;;;;;4998415;28;20502;-43
2024/01/24 08:29:59;;;;;;;123.70;62.05;;;;;;;;;;5014527;28;20758;-43
2024/01/24 08:32:25;;;;;;;114.65;58.63;;;;;;;;;;5014018;28;20212;-43
2024/01/24 08:34:52;;;;;;;114.57;60.15;;;;;;;;;;5014132;28;20206;-44
2024/01/24 08:37:18;;;;;;;114.72;60.08;;;;;;;;;;5003520;28;20173;-44
2024/01/24 08:39:44;;;;;;;120.23;60.00;;;;;;;;;;5001693;28;20196;-43
2024/01/24 08:42:10;;;;;;;118.30;59.42;;;;;;;;;;5011279;28;20439;-44
2024/01/24 08:44:36;;;;;;;117.57;60.78;;;;;;;;;;4994990;28;20198;-43
2024/01/24 08:47:02;;;;;;;110.60;58.70;;;;;;;;;;5013462;28;20764;-43
2024/01/24 08:49:28;;;;;;;110.83;60.33;;;;;;;;;;4999415;28;20827;-43
2024/01/24 08:51:54;;;;;;;128.97;75.23;;;;;;;;;;5002016;28;20550;-43
2024/01/24 08:54:20;;;;;;;113.37;60.63;;;;;;;;;;5001120;28;20409;-42
2024/01/24 08:56:46;;;;;;;112.07;60.20;;;;;;;;;;5011773;28;20413;-43
2024/01/24 08:59:12;;;;;;;112.27;60.10;;;;;;;;;;4993022;28;20514;-44
2024/01/24 09:01:37;;;;;;;109.23;59.50;;;;;;;;;;5009057;28;20466;-44
2024/01/24 09:04:04;;;;;;;109.50;60.40;;;;;;;;;;5001608;28;20438;-45
2024/01/24 09:06:30;;;;;;;111.82;61.85;;;;;;;;;;4994474;28;20416;-44
2024/01/24 09:08:56;;;;;;;107.97;61.20;;;;;;;;;;4997060;28;20280;-44
2024/01/24 09:11:22;;;;;;;106.43;58.80;;;;;;;;;;4994251;28;20477;-44
2024/01/24 09:13:49;;;;;;;106.37;59.73;;;;;;;;;;4994151;28;20189;-44
2024/01/24 09:16:16;;;;;;;102.47;59.42;;;;;;;;;;4993730;28;20401;-44
2024/01/24 09:18:42;;;;;;;99.32;58.88;;;;;;;;;;4994310;28;20204;-44
2024/01/24 09:21:08;;;;;;;100.00;60.00;;;;;;;;;;4994113;28;20201;-44
2024/01/24 09:23:34;;;;;;;99.22;61.50;;;;;;;;;;4994421;28;20225;-44
2024/01/24 09:26:02;;;;;;;106.10;62.37;;;;;;;;;;4994227;28;20187;-43
2024/01/24 09:28:28;;;;;;;98.10;62.15;;;;;;;;;;4994100;28;20415;-42
2024/01/24 09:30:54;;;;;;;98.53;60.20;;;;;;;;;;4994227;28;20220;-43
2024/01/24 09:33:20;;;;;;;96.13;59.90;;;;;;;;;;4995074;28;20437;-47
2024/01/24 09:35:46;;;;;;;100.87;62.13;;;;;;;;;;4994133;28;20184;-42
2024/01/24 09:38:13;;;;;;;96.72;59.67;;;;;;;;;;5012140;28;20449;-43
2024/01/24 09:40:39;;;;;;;98.00;59.65;;;;;;;;;;4996569;28;20254;-42
2024/01/24 09:43:08;;;;;;;99.38;58.75;;;;;;;;;;5004567;28;20279;-43
2024/01/24 09:45:38;;;;;;;105.05;60.80;;;;;;;;;;5005440;28;20188;-43
2024/01/24 09:48:04;;;;;;;103.03;56.90;;;;;;;;;;4997561;28;20282;-43
2024/01/24 09:50:30;;;;;;;103.00;58.45;;;;;;;;;;5012763;28;20207;-43
2024/01/24 09:52:56;;;;;;;103.87;61.60;;;;;;;;;;4993595;28;20693;-43
2024/01/24 09:55:23;;;;;;;102.47;58.15;;;;;;;;;;5009041;28;20834;-43
2024/01/24 09:57:49;;;;;;;101.10;57.97;;;;;;;;;;5001545;28;20230;-43
2024/01/24 10:00:15;;;;;;;103.97;57.50;;;;;;;;;;4999636;28;20207;-43
2024/01/24 10:02:45;;;;;;;108.70;59.95;;;;;;;;;;5009278;28;20721;-43
2024/01/24 10:05:13;;;;;;;103.30;58.78;;;;;;;;;;4993514;28;20175;-43
2024/01/24 10:07:40;;;;;;;103.50;56.70;;;;;;;;;;4974029;28;20181;-43
2024/01/24 10:10:08;;;;;;;113.30;63.03;;;;;;;;;;5005944;28;20233;-43
2024/01/24 10:12:35;;;;;;;107.85;58.42;;;;;;;;;;5012244;28;20199;-43
2024/01/24 10:15:01;;;;;;;107.95;58.35;;;;;;;;;;5004405;28;20649;-43
2024/01/24 10:17:27;;;;;;;108.13;58.40;;;;;;;;;;4997395;28;20184;-43
2024/01/24 10:19:53;;;;;;;114.32;60.83;;;;;;;;;;5012111;28;20477;-43
2024/01/24 10:22:21;;;;;;;114.43;58.28;;;;;;;;;;4993179;28;20165;-43
2024/01/24 10:24:47;;;;;;;116.60;59.25;;;;;;;;;;5009253;28;20337;-43
2024/01/24 10:27:13;;;;;;;119.50;58.67;;;;;;;;;;4999811;28;20260;-42
2024/01/24 10:29:40;;;;;;;120.25;60.72;;;;;;;;;;5000621;28;20438;-42
2024/01/24 10:32:09;;;;;;;128.90;67.18;;;;;;;;;;5007164;28;20196;-43
2024/01/24 10:34:36;;;;;;;124.40;59.85;;;;;;;;;;4993262;28;20169;-43
2024/01/24 10:37:02;;;;;;;122.20;59.67;;;;;;;;;;5012945;28;20531;-42
2024/01/24 10:39:28;;;;;;;123.10;59.23;;;;;;;;;;4995685;28;20196;-42
2024/01/24 10:41:54;;;;;;;118.68;59.90;;;;;;;;;;5004876;28;20909;-42
2024/01/24 10:44:24;;;;;;;124.07;61.55;;;;;;;;;;5004221;28;20255;-43
2024/01/24 10:46:51;;;;;;;122.22;60.20;;;;;;;;;;4997328;28;20240;-43
2024/01/24 10:49:18;;;;;;;132.25;64.50;;;;;;;;;;5011023;28;20194;-43
2024/01/24 10:51:45;;;;;;;129.90;62.90;;;;;;;;;;4992451;28;20202;-42
2024/01/24 10:54:12;;;;;;;136.82;60.60;;;;;;;;;;5009141;28;20177;-43
2024/01/24 10:56:38;;;;;;;130.50;61.67;;;;;;;;;;4999340;28;20176;-42
2024/01/24 10:59:05;;;;;;;131.52;60.50;;;;;;;;;;4999913;28;20219;-42
2024/01/24 11:01:31;;;;;;;146.13;63.75;;;;;;;;;;5007007;28;20178;-43
2024/01/24 11:03:58;;;;;;;137.65;60.88;;;;;;;;;;4993633;28;20636;-43
2024/01/24 11:06:26;;;;;;;132.38;62.17;;;;;;;;;;5011975;28;20640;-43
2024/01/24 11:08:55;;;;;;;134.55;67.05;;;;;;;;;;4994845;28;20178;-42
2024/01/24 11:11:22;;;;;;;131.80;61.75;;;;;;;;;;5005380;28;20203;-42
2024/01/24 11:13:48;;;;;;;130.50;62.45;;;;;;;;;;5002490;28;20570;-42
2024/01/24 11:16:41;;;;;;;131.33;61.30;;;;;;;;;;4997529;28;20173;-43
2024/01/24 11:19:23;;;;;;;136.55;63.70;;;;;;;;;;5004998;28;20424;-42
2024/01/24 11:21:49;;;;;;;134.13;61.63;;;;;;;;;;4995360;28;20275;-43
2024/01/24 11:24:44;;;;;;;144.73;63.10;;;;;;;;;;5011998;28;20172;-43
2024/01/24 11:27:25;;;;;;;140.82;61.65;;;;;;;;;;4973245;28;20201;-43
2024/01/24 11:29:55;;;;;;;135.45;62.20;;;;;;;;;;4972534;28;20243;-44
2024/01/24 11:32:39;;;;;;;134.88;60.80;;;;;;;;;;5006851;28;20228;-42
2024/01/24 11:35:24;;;;;;;137.80;62.78;;;;;;;;;;4995030;28;20191;-43
2024/01/24 11:37:50;;;;;;;137.50;61.90;;;;;;;;;;5006291;28;20265;-42
2024/01/24 11:40:17;;;;;;;135.50;64.00;;;;;;;;;;5004523;28;20221;-44
2024/01/24 11:42:53;;;;;;;136.23;63.08;;;;;;;;;;5001742;28;20432;-43
2024/01/24 11:45:23;;;;;;;134.60;60.35;;;;;;;;;;5012381;28;20250;-42
2024/01/24 11:47:50;;;;;;;140.45;63.38;;;;;;;;;;4996628;28;20676;-44
2024/01/24 11:50:16;;;;;;;137.38;61.03;;;;;;;;;;5015125;28;20193;-44
2024/01/24 11:52:42;;;;;;;137.50;61.42;;;;;;;;;;4999771;28;20680;-44
2024/01/24 11:55:09;;;;;;;137.88;63.65;;;;;;;;;;5007362;28;20176;-44
2024/01/24 11:57:35;;;;;;;143.82;67.88;;;;;;;;;;5005917;28;20653;-44
2024/01/24 12:00:01;;;;;;;134.80;61.72;;;;;;;;;;4983243;28;20203;-43
2024/01/24 12:02:27;;;;;;;136.23;62.17;;;;;;;;;;5015270;28;20644;-44
2024/01/24 12:04:53;;;;;;;137.00;65.00;;;;;;;;;;4996205;28;20421;-43
2024/01/24 12:07:20;;;;;;;137.73;63.05;;;;;;;;;;5010697;28;20403;-43
2024/01/24 12:09:47;;;;;;;134.13;60.58;;;;;;;;;;5003655;28;20673;-44
2024/01/24 12:12:13;;;;;;;136.55;63.33;;;;;;;;;;5002421;28;20283;-44
2024/01/24 12:14:40;;;;;;;133.98;61.55;;;;;;;;;;5011756;28;20716;-43
2024/01/24 12:17:10;;;;;;;130.23;60.90;;;;;;;;;;4995398;28;20169;-44
2024/01/24 12:19:36;;;;;;;132.00;62.65;;;;;;;;;;5014358;28;20192;-44
2024/01/24 12:22:08;;;;;;;129.98;60.33;;;;;;;;;;4999408;28;20208;-44
2024/01/24 12:24:37;;;;;;;131.93;61.58;;;;;;;;;;5007585;28;20215;-44
2024/01/24 12:27:03;;;;;;;133.50;63.00;;;;;;;;;;5006250;28;20174;-44
2024/01/24 12:29:29;;;;;;;132.27;59.95;;;;;;;;;;4999342;28;20201;-43
2024/01/24 12:31:54;;;;;;;134.00;61.63;;;;;;;;;;5014008;28;20288;-43
2024/01/24 12:34:21;;;;;;;134.33;60.97;;;;;;;;;;4995181;28;20409;-44
2024/01/24 12:36:47;;;;;;;140.02;62.45;;;;;;;;;;5011154;28;20504;-43
2024/01/24 12:39:13;;;;;;;141.57;62.35;;;;;;;;;;5002005;28;20264;-43
2024/01/24 12:41:39;;;;;;;138.27;65.03;;;;;;;;;;5002970;28;20602;-44
2024/01/24 12:44:06;;;;;;;132.83;59.50;;;;;;;;;;5010219;28;20188;-45
2024/01/24 12:46:32;;;;;;;127.78;60.83;;;;;;;;;;4992412;28;20420;-43
2024/01/24 12:48:58;;;;;;;133.82;63.90;;;;;;;;;;4997805;28;20213;-43
2024/01/24 12:51:24;;;;;;;130.70;61.63;;;;;;;;;;5009536;28;20202;-43
2024/01/24 12:53:50;;;;;;;132.93;60.97;;;;;;;;;;5002483;28;20187;-44
2024/01/24 12:56:18;;;;;;;136.30;61.47;;;;;;;;;;5002369;28;20173;-44
2024/01/24 12:58:44;;;;;;;139.98;63.33;;;;;;;;;;5012251;28;20399;-43
2024/01/24 13:01:10;;;;;;;144.03;65.70;;;;;;;;;;5001143;28;20206;-44
2024/01/24 13:03:36;;;;;;;140.18;61.28;;;;;;;;;;4995081;28;20409;-43
2024/01/24 13:06:03;;;;;;;138.33;65.57;;;;;;;;;;5010075;28;20205;-44
2024/01/24 13:08:29;;;;;;;145.63;64.30;;;;;;;;;;5001149;28;20408;-43
2024/01/24 13:10:55;;;;;;;151.63;67.37;;;;;;;;;;5002102;28;20254;-42
2024/01/24 13:13:22;;;;;;;141.73;62.92;;;;;;;;;;5010153;28;20932;-44
2024/01/24 13:15:52;;;;;;;139.60;64.05;;;;;;;;;;4994464;28;20252;-44
2024/01/24 13:18:18;;;;;;;136.55;61.88;;;;;;;;;;5013057;28;20177;-43
2024/01/24 13:20:44;;;;;;;135.20;60.53;;;;;;;;;;4997679;28;20700;-42
2024/01/24 13:23:10;;;;;;;131.70;60.05;;;;;;;;;;5005890;28;20413;-43
2024/01/24 13:25:36;;;;;;;133.23;62.07;;;;;;;;;;5006045;28;20529;-42
2024/01/24 13:28:02;;;;;;;135.95;62.10;;;;;;;;;;4997598;28;20445;-42
2024/01/24 13:30:28;;;;;;;136.13;61.57;;;;;;;;;;5013474;28;20197;-43
2024/01/24 13:32:54;;;;;;;139.53;63.23;;;;;;;;;;4994332;28;20518;-42
2024/01/24 13:35:20;;;;;;;137.73;60.20;;;;;;;;;;5009283;28;20411;-43
2024/01/24 13:37:46;;;;;;;145.23;65.43;;;;;;;;;;5002329;28;20443;-42
2024/01/24 13:40:13;;;;;;;140.48;63.17;;;;;;;;;;5000694;28;20424;-42
2024/01/24 13:42:39;;;;;;;141.32;62.83;;;;;;;;;;5009811;28;20185;-42
2024/01/24 13:45:05;;;;;;;143.83;63.70;;;;;;;;;;4993895;28;20177;-42
2024/01/24 13:47:31;;;;;;;143.38;61.97;;;;;;;;;;5012673;28;20507;-41
2024/01/24 13:49:57;;;;;;;147.07;61.47;;;;;;;;;;4998046;28;20232;-42
2024/01/24 13:52:23;;;;;;;146.30;61.00;;;;;;;;;;5004298;28;20459;-42
2024/01/24 13:54:49;;;;;;;150.87;63.10;;;;;;;;;;5006429;28;20415;-42
2024/01/24 13:57:15;;;;;;;152.70;63.53;;;;;;;;;;4996037;28;20476;-43
2024/01/24 13:59:41;;;;;;;152.43;63.67;;;;;;;;;;5013127;28;20420;-44
2024/01/24 14:02:07;;;;;;;149.63;61.83;;;;;;;;;;4994491;28;20413;-43
2024/01/24 14:04:33;;;;;;;147.95;64.90;;;;;;;;;;5007661;28;20176;-42
2024/01/24 14:06:59;;;;;;;148.00;63.10;;;;;;;;;;5002525;28;20182;-42